Time;durP1;ratioP1;P1;durP2;ratioP2;P2;SDS_P1;SDS_P2;PMS_P1;PMS_P2;Temp;Humidity;BMP_temperature;BMP_pressure;BME280_temperature;BME280_humidity;BME280_pressure;Samples;Min_cycle;Max_cycle;Signal;HPM_P1;HPM_P2
2022/01/31 00:02:11;;;;;;;14.97;4.20;;;;;;;5.24;80.23;99179.63;5069478;28;20638;-54
2022/01/31 00:04:38;;;;;;;11.13;3.93;;;;;;;5.29;78.84;99181.28;5069697;28;20226;-54
2022/01/31 00:07:05;;;;;;;18.07;3.90;;;;;;;5.31;77.69;99183.81;5069220;28;20191;-54
2022/01/31 00:09:32;;;;;;;17.63;3.87;;;;;;;5.38;76.88;99182.88;5069499;28;20203;-54
2022/01/31 00:12:02;;;;;;;16.20;2.90;;;;;;;5.41;75.68;99167.41;5069416;28;20200;-54
2022/01/31 00:14:34;;;;;;;17.00;3.53;;;;;;;5.51;74.13;99178.44;5069375;28;20290;-53
2022/01/31 00:17:03;;;;;;;12.63;3.30;;;;;;;5.38;73.55;99154.59;5070540;28;20203;-53
2022/01/31 00:19:30;;;;;;;20.77;4.03;;;;;;;5.57;73.48;99174.03;5072894;28;20646;-53
2022/01/31 00:21:57;;;;;;;12.60;3.63;;;;;;;5.50;74.09;99172.44;5072899;28;20198;-53
2022/01/31 00:24:24;;;;;;;12.37;3.17;;;;;;;5.49;73.91;99178.44;5072767;28;20278;-54
2022/01/31 00:26:51;;;;;;;18.47;3.73;;;;;;;5.49;74.15;99168.16;5072632;28;20231;-54
2022/01/31 00:29:18;;;;;;;7.60;3.57;;;;;;;5.58;73.43;99169.75;5072589;28;20738;-54
2022/01/31 00:31:45;;;;;;;18.43;3.37;;;;;;;5.46;73.17;99147.59;5072748;28;20196;-54
2022/01/31 00:34:13;;;;;;;14.63;3.43;;;;;;;5.58;72.77;99156.88;5072619;28;20192;-53
2022/01/31 00:36:40;;;;;;;14.90;3.20;;;;;;;5.66;71.80;99165.31;5072712;28;20278;-53
2022/01/31 00:39:07;;;;;;;13.07;3.47;;;;;;;5.62;71.44;99166.25;5072473;28;20703;-53
2022/01/31 00:41:35;;;;;;;18.13;4.30;;;;;;;5.62;70.61;99138.78;5072454;28;20203;-53
2022/01/31 00:44:13;;;;;;;22.10;3.93;;;;;;;5.64;70.68;99160.22;5072332;28;20200;-54
2022/01/31 00:46:43;;;;;;;9.80;3.30;;;;;;;5.66;70.47;99161.03;5072547;28;20673;-54
2022/01/31 00:49:16;;;;;;;15.10;4.30;;;;;;;5.70;70.36;99167.84;5072505;28;20192;-54
2022/01/31 00:51:44;;;;;;;9.63;3.37;;;;;;;5.65;70.21;99158.47;5072271;28;20211;-54
2022/01/31 00:54:11;;;;;;;16.50;3.47;;;;;;;5.61;70.15;99167.13;5072111;28;20234;-55
2022/01/31 00:56:38;;;;;;;14.70;3.67;;;;;;;5.63;69.72;99168.81;5072117;28;20765;-54
2022/01/31 00:59:05;;;;;;;7.73;3.23;;;;;;;5.61;69.75;99165.41;5072242;28;20604;-56
2022/01/31 01:01:32;;;;;;;11.93;3.50;;;;;;;5.56;69.92;99167.19;5072017;28;20291;-57
2022/01/31 01:03:58;;;;;;;21.30;3.83;;;;;;;5.55;70.02;99157.75;5072199;28;20283;-56
2022/01/31 01:06:25;;;;;;;7.80;3.60;;;;;;;5.51;69.62;99157.84;5072350;28;20287;-57
2022/01/31 01:08:54;;;;;;;19.37;3.83;;;;;;;5.50;68.90;99144.13;5071757;28;20193;-56
2022/01/31 01:11:20;;;;;;;10.80;3.33;;;;;;;5.59;69.25;99159.44;5071939;28;20196;-56
2022/01/31 01:13:47;;;;;;;12.07;3.60;;;;;;;5.61;69.02;99161.97;5072184;28;20715;-56
2022/01/31 01:16:14;;;;;;;23.53;4.20;;;;;;;5.63;69.27;99170.53;5071828;28;20218;-57
2022/01/31 01:18:41;;;;;;;20.37;3.80;;;;;;;5.61;68.72;99167.97;5071588;28;20228;-56
2022/01/31 01:21:08;;;;;;;18.20;3.47;;;;;;;5.61;68.61;99172.28;5071822;28;20583;-56
2022/01/31 01:23:35;;;;;;;20.23;4.27;;;;;;;5.57;68.68;99168.03;5071504;28;20218;-57
2022/01/31 01:26:04;;;;;;;10.40;3.70;;;;;;;5.47;69.83;99159.59;5071862;28;20641;-57
2022/01/31 01:28:30;;;;;;;13.97;3.50;;;;;;;5.46;69.10;99178.47;5071308;28;20223;-57
2022/01/31 01:30:58;;;;;;;24.33;3.77;;;;;;;5.43;68.75;99171.66;5071520;28;20200;-56
2022/01/31 01:33:28;;;;;;;18.37;3.67;;;;;;;5.36;67.98;99171.75;5071455;28;20672;-54
2022/01/31 01:35:55;;;;;;;12.63;3.30;;;;;;;5.43;67.44;99178.50;5071282;28;20290;-54
2022/01/31 01:38:28;;;;;;;11.37;3.20;;;;;;;5.33;67.30;99146.91;5071505;28;20220;-53
2022/01/31 01:40:57;;;;;;;15.27;2.80;;;;;;;5.47;65.96;99165.59;5071449;28;20200;-53
2022/01/31 01:43:27;;;;;;;9.20;2.63;;;;;;;5.46;65.88;99173.34;5071264;28;20196;-54
2022/01/31 01:45:55;;;;;;;19.27;4.07;;;;;;;5.52;65.39;99164.69;5070963;28;20206;-54
2022/01/31 01:48:23;;;;;;;13.03;2.73;;;;;;;5.33;65.29;99141.75;5071026;28;20192;-54
2022/01/31 01:50:51;;;;;;;19.50;3.70;;;;;;;5.56;64.41;99156.88;5071201;28;20253;-54
2022/01/31 01:53:18;;;;;;;15.33;3.20;;;;;;;5.56;64.18;99158.59;5070842;28;20330;-53
2022/01/31 01:55:46;;;;;;;17.57;3.30;;;;;;;5.60;63.74;99155.13;5070745;28;20230;-53
2022/01/31 01:58:16;;;;;;;10.63;3.53;;;;;;;5.53;63.31;99153.53;5070743;28;20219;-55
2022/01/31 02:00:50;;;;;;;10.67;2.33;;;;;;;5.31;63.28;99114.34;5070848;28;20203;-53
2022/01/31 02:03:18;;;;;;;11.70;2.53;;;;;;;5.54;62.69;99150.91;5070770;28;20235;-53
2022/01/31 02:05:45;;;;;;;13.70;3.03;;;;;;;5.54;62.72;99144.91;5070940;28;20719;-54
2022/01/31 02:08:14;;;;;;;14.70;3.67;;;;;;;5.41;62.76;99155.41;5070797;28;20579;-54
2022/01/31 02:10:41;;;;;;;145.57;10.07;;;;;;;5.55;62.31;99164.63;5070872;28;20242;-54
2022/01/31 02:13:10;;;;;;;19.63;3.57;;;;;;;5.58;61.79;99162.88;5070725;28;20570;-57
2022/01/31 02:15:37;;;;;;;26.80;4.13;;;;;;;5.43;62.24;99139.91;5070420;28;20287;-54
2022/01/31 02:18:06;;;;;;;12.67;2.33;;;;;;;5.53;61.99;99174.13;5070432;28;20196;-54
2022/01/31 02:20:39;;;;;;;20.43;3.10;;;;;;;5.50;61.95;99176.72;5070657;28;20286;-53
2022/01/31 02:23:07;;;;;;;8.77;2.87;;;;;;;5.50;61.96;99187.88;5070587;28;20200;-53
2022/01/31 02:25:35;;;;;;;15.77;3.60;;;;;;;5.57;61.80;99171.47;5070448;28;20205;-53
2022/01/31 02:28:02;;;;;;;14.53;2.83;;;;;;;5.58;61.16;99182.63;5070256;28;20218;-53
2022/01/31 02:30:28;;;;;;;16.77;3.40;;;;;;;5.55;60.91;99177.50;5070347;28;20200;-54
2022/01/31 02:32:55;;;;;;;17.17;4.57;;;;;;;5.44;61.60;99165.63;5070645;28;20188;-53
2022/01/31 02:35:22;;;;;;;8.47;2.90;;;;;;;5.46;61.18;99163.03;5070523;28;20282;-53
2022/01/31 02:37:51;;;;;;;14.30;3.47;;;;;;;5.63;60.39;99170.53;5070149;28;20196;-53
2022/01/31 02:40:18;;;;;;;12.13;2.70;;;;;;;5.59;59.59;99174.03;5069539;28;20637;-52
2022/01/31 02:42:45;;;;;;;11.20;3.17;;;;;;;5.54;59.97;99165.50;5070061;28;20204;-53
2022/01/31 02:45:11;;;;;;;12.07;2.97;;;;;;;5.58;59.68;99156.88;5070113;28;20204;-54
2022/01/31 02:47:42;;;;;;;8.13;2.90;;;;;;;5.60;60.14;99170.56;5070177;28;20192;-54
2022/01/31 02:50:12;;;;;;;6.23;2.73;;;;;;;5.57;60.39;99170.59;5070302;28;20283;-54
2022/01/31 02:52:46;;;;;;;12.97;2.57;;;;;;;5.54;60.43;99171.50;5070042;28;20264;-54
2022/01/31 02:55:15;;;;;;;10.63;3.23;;;;;;;5.52;60.34;99168.13;5069686;28;20782;-53
2022/01/31 02:57:42;;;;;;;11.43;2.43;;;;;;;5.46;60.83;99173.34;5070170;28;20724;-55
2022/01/31 03:00:11;;;;;;;6.03;2.90;;;;;;;5.48;60.94;99179.31;5069990;28;20227;-54
2022/01/31 03:02:38;;;;;;;7.20;2.87;;;;;;;5.42;61.08;99174.22;5069925;28;20667;-53
2022/01/31 03:05:05;;;;;;;11.77;2.80;;;;;;;5.39;61.32;99180.31;5069994;28;20203;-54
2022/01/31 03:07:34;;;;;;;14.00;2.77;;;;;;;5.46;61.68;99193.94;5069711;28;20203;-54
2022/01/31 03:10:01;;;;;;;11.97;2.77;;;;;;;5.43;61.49;99191.38;5069915;28;20287;-54
2022/01/31 03:12:29;;;;;;;14.13;2.47;;;;;;;5.40;61.99;99188.88;5070281;28;20196;-54
2022/01/31 03:14:56;;;;;;;12.70;2.57;;;;;;;5.43;61.88;99188.81;5070003;28;20196;-55
2022/01/31 03:17:23;;;;;;;7.33;2.37;;;;;;;5.37;61.91;99184.63;5069900;28;20689;-53
2022/01/31 03:19:53;;;;;;;7.00;2.30;;;;;;;5.26;61.49;99168.47;5069850;28;20223;-54
2022/01/31 03:22:22;;;;;;;6.20;2.67;;;;;;;5.35;61.74;99186.34;5069997;28;20718;-54
2022/01/31 03:24:49;;;;;;;5.07;2.00;;;;;;;5.39;61.76;99189.75;5069792;28;20211;-54
2022/01/31 03:27:16;;;;;;;6.30;2.47;;;;;;;5.31;61.69;99179.53;5069798;28;20693;-56
2022/01/31 03:29:45;;;;;;;12.47;2.83;;;;;;;5.30;61.80;99182.16;5069656;28;20196;-56
2022/01/31 03:32:12;;;;;;;8.67;2.97;;;;;;;5.34;61.51;99188.94;5069666;28;20287;-56
2022/01/31 03:34:38;;;;;;;9.07;2.80;;;;;;;5.32;62.15;99182.94;5069534;28;20712;-56
2022/01/31 03:37:05;;;;;;;5.90;2.60;;;;;;;5.24;63.15;99171.91;5069822;28;20200;-56
2022/01/31 03:39:32;;;;;;;6.60;2.43;;;;;;;5.30;63.64;99171.84;5069406;28;20311;-56
2022/01/31 03:41:59;;;;;;;10.97;3.10;;;;;;;5.29;64.32;99175.28;5069930;28;20200;-56
2022/01/31 03:44:26;;;;;;;4.30;2.30;;;;;;;5.26;64.91;99172.75;5069514;28;20203;-57
2022/01/31 03:46:55;;;;;;;5.47;2.00;;;;;;;5.28;65.43;99186.47;5069478;28;20286;-56
2022/01/31 03:49:22;;;;;;;19.23;3.40;;;;;;;5.33;65.60;99187.22;5069396;28;20200;-57
2022/01/31 03:51:49;;;;;;;4.00;2.37;;;;;;;5.30;65.88;99193.28;5072066;28;20202;-56
2022/01/31 03:54:16;;;;;;;10.87;3.70;;;;;;;5.37;65.78;99199.19;5073083;28;20236;-56
2022/01/31 03:56:43;;;;;;;7.27;2.47;;;;;;;5.31;65.70;99210.41;5073220;28;20225;-57
2022/01/31 03:59:10;;;;;;;19.73;2.70;;;;;;;5.25;65.77;99217.38;5072957;28;20277;-57
2022/01/31 04:01:37;;;;;;;6.00;2.03;;;;;;;5.23;65.92;99239.69;5072698;28;20202;-57
2022/01/31 04:04:10;;;;;;;12.03;2.43;;;;;;;5.24;65.68;99231.94;5079517;28;20198;-57
2022/01/31 04:06:38;;;;;;;7.47;2.30;;;;;;;5.13;65.46;99220.06;5084310;28;20196;-56
2022/01/31 04:09:05;;;;;;;8.23;2.27;;;;;;;5.28;64.83;99248.22;5087980;28;20636;-56
2022/01/31 04:11:32;;;;;;;6.80;2.57;;;;;;;5.20;64.98;99257.72;5092004;28;20202;-56
2022/01/31 04:13:58;;;;;;;8.13;2.63;;;;;;;5.26;65.10;99252.53;5091549;28;20278;-56
2022/01/31 04:16:25;;;;;;;12.93;3.07;;;;;;;5.25;64.71;99250.81;5091399;28;20264;-56
2022/01/31 04:18:52;;;;;;;8.90;2.93;;;;;;;5.37;64.55;99261.81;5091617;28;20219;-55
2022/01/31 04:21:22;;;;;;;5.60;2.30;;;;;;;5.31;64.61;99261.03;5090987;28;20190;-56
2022/01/31 04:23:50;;;;;;;6.63;2.40;;;;;;;5.32;64.40;99249.84;5090629;28;20195;-53
2022/01/31 04:26:17;;;;;;;9.20;2.50;;;;;;;5.25;63.94;99241.38;5089390;28;20214;-53
2022/01/31 04:28:46;;;;;;;7.87;2.43;;;;;;;5.34;64.12;99258.41;5086709;28;20752;-54
2022/01/31 04:31:34;;;;;;;9.67;2.60;;;;;;;5.24;64.54;99260.25;5090785;28;20199;-54
2022/01/31 04:34:01;;;;;;;4.10;2.10;;;;;;;5.16;65.04;99269.78;5089677;28;20251;-55
2022/01/31 04:36:30;;;;;;;5.83;2.43;;;;;;;5.20;64.58;99262.88;5091136;28;20199;-54
2022/01/31 04:38:57;;;;;;;3.13;2.40;;;;;;;5.21;64.45;99257.69;5090986;28;20191;-53
2022/01/31 04:41:24;;;;;;;11.97;2.53;;;;;;;5.11;64.50;99254.38;5088998;28;20198;-53
2022/01/31 04:43:52;;;;;;;14.23;4.17;;;;;;;5.10;64.59;99255.25;5091551;28;20754;-55
2022/01/31 04:46:19;;;;;;;6.70;3.20;;;;;;;5.05;64.35;99254.47;5091066;28;20253;-56
2022/01/31 04:48:46;;;;;;;7.57;3.43;;;;;;;5.02;65.05;99261.34;5091119;28;20210;-56
2022/01/31 04:51:14;;;;;;;5.80;3.00;;;;;;;5.09;64.76;99265.56;5090976;28;20199;-56
2022/01/31 04:53:43;;;;;;;4.17;2.07;;;;;;;5.31;66.78;99261.03;5090394;28;20200;-56
2022/01/31 04:56:10;;;;;;;8.63;2.70;;;;;;;5.32;64.34;99262.72;5090559;28;20716;-57
2022/01/31 04:58:37;;;;;;;5.70;2.40;;;;;;;5.30;65.85;99264.50;5090786;28;20195;-57
2022/01/31 05:01:04;;;;;;;9.10;2.57;;;;;;;5.28;68.82;99268.78;5089192;28;20739;-57
2022/01/31 05:03:31;;;;;;;8.83;4.00;;;;;;;5.24;64.88;99267.13;5089273;28;20256;-56
2022/01/31 05:05:58;;;;;;;6.63;3.17;;;;;;;5.17;67.09;99275.78;5090718;28;20195;-58
2022/01/31 05:08:27;;;;;;;7.63;2.47;;;;;;;5.19;64.16;99279.19;5091024;28;20195;-58
2022/01/31 05:10:56;;;;;;;9.90;2.07;;;;;;;5.20;63.79;99292.00;5091461;28;20230;-57
2022/01/31 05:13:23;;;;;;;9.40;2.43;;;;;;;5.17;63.77;99283.50;5090929;28;20215;-57
2022/01/31 05:15:53;;;;;;;7.43;2.23;;;;;;;5.10;63.58;99293.84;5091269;28;20207;-58
2022/01/31 05:18:21;;;;;;;5.73;2.57;;;;;;;5.11;63.76;99299.84;5091866;28;20198;-57
2022/01/31 05:20:48;;;;;;;12.13;2.93;;;;;;;5.04;64.69;99304.22;5090769;28;20603;-57
2022/01/31 05:23:15;;;;;;;6.90;2.17;;;;;;;5.05;64.15;99307.63;5091708;28;20206;-57
2022/01/31 05:25:42;;;;;;;6.87;2.67;;;;;;;4.98;64.11;99308.53;5091958;28;20268;-57
2022/01/31 05:28:10;;;;;;;7.37;2.37;;;;;;;4.89;64.67;99313.78;5078837;28;20226;-57
2022/01/31 05:30:37;;;;;;;4.13;2.67;;;;;;;4.93;64.63;99302.59;5070376;28;20719;-58
2022/01/31 05:33:04;;;;;;;6.47;2.40;;;;;;;4.92;63.84;99308.59;5070838;28;20249;-57
2022/01/31 05:35:32;;;;;;;7.23;2.20;;;;;;;4.87;64.14;99313.78;5070509;28;20613;-57
2022/01/31 05:37:58;;;;;;;11.43;2.70;;;;;;;4.93;63.79;99311.16;5078264;28;20762;-57
2022/01/31 05:40:26;;;;;;;11.27;2.80;;;;;;;4.93;63.82;99308.59;5078471;28;20226;-57
2022/01/31 05:42:53;;;;;;;10.07;2.50;;;;;;;4.85;63.11;99294.97;5078404;28;20225;-57
2022/01/31 05:45:21;;;;;;;6.53;2.80;;;;;;;5.02;63.31;99313.66;5079535;28;20209;-57
2022/01/31 05:47:48;;;;;;;9.40;2.70;;;;;;;5.02;62.86;99311.06;5080029;28;20226;-56
2022/01/31 05:50:15;;;;;;;11.23;3.00;;;;;;;4.98;62.56;99316.25;5077601;28;20225;-57
2022/01/31 05:52:42;;;;;;;3.17;2.60;;;;;;;5.10;62.46;99319.56;5070163;28;20238;-57
2022/01/31 05:55:09;;;;;;;7.90;2.53;;;;;;;5.07;61.82;99324.75;5069344;28;20216;-57
2022/01/31 05:57:37;;;;;;;5.30;2.43;;;;;;;5.10;61.58;99316.13;5088836;28;20731;-57
2022/01/31 06:00:05;;;;;;;6.87;2.60;;;;;;;5.11;61.57;99325.56;5091285;28;20215;-53
2022/01/31 06:02:35;;;;;;;4.83;2.53;;;;;;;5.15;61.68;99324.69;5091170;28;20298;-53
2022/01/31 06:05:02;;;;;;;12.43;3.23;;;;;;;5.17;61.88;99333.25;5091332;28;20203;-57
2022/01/31 06:07:29;;;;;;;13.77;3.00;;;;;;;5.16;61.96;99325.53;5080028;28;20220;-54
2022/01/31 06:09:56;;;;;;;8.30;3.10;;;;;;;5.32;61.09;99342.50;5070166;28;20224;-54
2022/01/31 06:12:23;;;;;;;5.03;2.70;;;;;;;5.37;61.19;99344.16;5089170;28;20293;-56
2022/01/31 06:14:50;;;;;;;3.60;2.30;;;;;;;5.37;60.87;99348.47;5089890;28;20219;-53
2022/01/31 06:17:17;;;;;;;9.53;2.83;;;;;;;5.45;60.63;99344.94;5075438;28;20621;-54
2022/01/31 06:19:45;;;;;;;13.80;3.87;;;;;;;5.50;60.23;99339.75;5070074;28;20307;-56
2022/01/31 06:22:12;;;;;;;6.77;3.00;;;;;;;5.47;60.21;99347.50;5069746;28;20196;-53
2022/01/31 06:24:40;;;;;;;5.73;2.73;;;;;;;5.55;60.16;99348.25;5070384;28;20200;-54
2022/01/31 06:27:07;;;;;;;9.33;2.70;;;;;;;5.45;60.18;99326.91;5070760;28;20226;-53
2022/01/31 06:29:34;;;;;;;9.33;2.70;;;;;;;5.70;59.66;99342.94;5070565;28;20235;-56
2022/01/31 06:32:01;;;;;;;11.40;3.00;;;;;;;5.85;58.67;99347.06;5070296;28;20580;-54
2022/01/31 06:34:27;;;;;;;7.13;2.77;;;;;;;5.88;58.55;99335.84;5070379;28;20206;-52
2022/01/31 06:36:57;;;;;;;13.93;3.23;;;;;;;5.99;57.44;99341.72;5070241;28;20195;-53
2022/01/31 06:39:24;;;;;;;7.17;3.07;;;;;;;6.04;57.31;99340.81;5070378;28;20207;-54
2022/01/31 06:41:51;;;;;;;6.90;2.80;;;;;;;6.12;56.72;99343.28;5070201;28;20250;-54
2022/01/31 06:44:18;;;;;;;6.97;3.03;;;;;;;6.20;56.65;99344.06;5070176;28;20200;-54
2022/01/31 06:46:45;;;;;;;11.70;2.73;;;;;;;6.40;55.29;99346.34;5070036;28;20195;-53
2022/01/31 06:49:12;;;;;;;7.73;2.97;;;;;;;6.54;55.18;99354.72;5069872;28;20238;-53
2022/01/31 06:51:39;;;;;;;11.57;2.83;;;;;;;6.66;54.63;99358.84;5069964;28;20257;-54
2022/01/31 06:54:07;;;;;;;11.17;3.43;;;;;;;6.78;54.96;99353.47;5069836;28;20195;-55
2022/01/31 06:56:38;;;;;;;12.97;4.00;;;;;;;6.64;54.21;99376.06;5069908;28;20673;-54
2022/01/31 06:59:05;;;;;;;18.47;3.90;;;;;;;6.81;54.07;99366.31;5069775;28;20196;-55
2022/01/31 07:01:32;;;;;;;11.23;3.77;;;;;;;6.94;54.07;99367.81;5069780;28;20770;-55
2022/01/31 07:03:59;;;;;;;7.80;3.73;;;;;;;7.04;53.03;99353.03;5069688;28;20196;-54
2022/01/31 07:06:26;;;;;;;6.63;3.73;;;;;;;7.20;52.92;99372.56;5069853;28;20196;-54
2022/01/31 07:08:54;;;;;;;13.40;4.57;;;;;;;7.15;52.26;99366.59;5069664;28;20195;-54
2022/01/31 07:11:23;;;;;;;11.83;4.70;;;;;;;7.07;52.08;99360.75;5069768;28;20188;-55
2022/01/31 07:14:00;;;;;;;6.77;4.07;;;;;;;7.15;52.02;99367.47;5069722;28;20235;-54
2022/01/31 07:16:27;;;;;;;8.30;3.57;;;;;;;7.10;52.12;99365.84;5069765;28;20704;-54
2022/01/31 07:18:59;;;;;;;10.07;3.90;;;;;;;7.13;51.95;99366.63;5070174;28;20581;-53
2022/01/31 07:21:34;;;;;;;9.50;3.80;;;;;;;7.17;52.00;99360.53;5069381;28;20226;-54
2022/01/31 07:24:16;;;;;;;11.70;4.30;;;;;;;7.26;52.80;99346.63;5069550;28;20199;-54
2022/01/31 07:26:45;;;;;;;15.83;4.90;;;;;;;7.19;51.97;99345.88;5072329;28;20231;-54
2022/01/31 07:29:12;;;;;;;8.80;3.67;;;;;;;7.19;52.49;99340.72;5073822;28;20279;-54
2022/01/31 07:31:39;;;;;;;17.83;3.73;;;;;;;7.32;52.35;99335.34;5079887;28;20200;-54
2022/01/31 07:34:07;;;;;;;16.87;4.07;;;;;;;7.38;52.23;99322.31;5073449;28;20602;-55
2022/01/31 07:36:35;;;;;;;16.73;4.20;;;;;;;7.25;52.98;99330.28;5073235;28;20669;-55
2022/01/31 07:39:02;;;;;;;20.13;4.17;;;;;;;7.12;52.65;99302.97;5073639;28;20279;-55
2022/01/31 07:41:29;;;;;;;11.87;3.60;;;;;;;7.17;52.08;99328.72;5073189;28;20223;-55
2022/01/31 07:43:57;;;;;;;22.07;5.33;;;;;;;7.35;52.51;99317.19;5075799;28;20291;-55
2022/01/31 07:46:24;;;;;;;19.73;5.40;;;;;;;7.42;54.55;99318.78;5073177;28;20196;-55
2022/01/31 07:48:53;;;;;;;15.97;3.83;;;;;;;7.12;55.52;99313.31;5073133;28;20665;-53
2022/01/31 07:51:20;;;;;;;6.40;2.90;;;;;;;7.16;55.35;99312.38;5073339;28;20199;-53
2022/01/31 07:53:47;;;;;;;18.63;4.17;;;;;;;7.16;52.25;99309.81;5073001;28;20223;-55
2022/01/31 07:56:15;;;;;;;18.10;4.57;;;;;;;7.17;51.72;99316.66;5073137;28;20278;-54
2022/01/31 07:58:43;;;;;;;10.53;2.97;;;;;;;7.09;51.63;99308.22;5073232;28;20754;-54
2022/01/31 08:01:12;;;;;;;11.93;3.83;;;;;;;7.01;55.08;99298.91;5073070;28;20610;-55
2022/01/31 08:03:39;;;;;;;20.17;3.53;;;;;;;6.87;53.19;99301.75;5071361;28;20720;-55
2022/01/31 08:06:07;;;;;;;15.20;3.10;;;;;;;6.91;52.80;99287.88;5072507;28;20357;-54
2022/01/31 08:08:34;;;;;;;17.23;4.70;;;;;;;6.81;51.82;99297.53;5071829;28;20220;-54
2022/01/31 08:11:03;;;;;;;13.23;3.33;;;;;;;6.87;54.90;99278.53;5085200;28;20216;-54
2022/01/31 08:13:30;;;;;;;8.40;3.53;;;;;;;6.93;52.28;99275.81;5072687;28;20191;-54
2022/01/31 08:16:09;;;;;;;38.57;4.53;;;;;;;6.89;51.46;99280.19;5079461;28;20206;-54
2022/01/31 08:18:40;;;;;;;13.97;3.50;;;;;;;6.87;51.52;99281.97;5092891;28;20202;-54
2022/01/31 08:21:07;;;;;;;21.70;4.00;;;;;;;6.89;50.09;99274.16;5092732;28;20312;-56
2022/01/31 08:23:35;;;;;;;22.13;3.93;;;;;;;6.79;53.45;99257.16;5092840;28;20566;-55
2022/01/31 08:26:04;;;;;;;14.07;3.87;;;;;;;6.89;53.02;99275.00;5076717;28;20262;-55
2022/01/31 08:28:38;;;;;;;16.60;4.17;;;;;;;6.93;50.89;99280.97;5071115;28;20228;-55
2022/01/31 08:31:15;;;;;;;23.70;4.33;;;;;;;7.00;51.95;99287.72;5079572;28;20264;-55
2022/01/31 08:33:48;;;;;;;42.90;6.57;;;;;;;7.09;50.78;99297.06;5092099;28;20222;-55
2022/01/31 08:36:15;;;;;;;17.13;4.03;;;;;;;7.10;50.43;99281.53;5092167;28;20223;-54
2022/01/31 08:38:44;;;;;;;10.10;3.60;;;;;;;7.12;50.34;99286.66;5088421;28;20300;-54
2022/01/31 08:41:12;;;;;;;19.70;3.53;;;;;;;7.17;49.25;99303.78;5072004;28;20307;-54
2022/01/31 08:43:40;;;;;;;18.27;4.10;;;;;;;7.32;48.58;99299.19;5072163;28;20200;-55
2022/01/31 08:46:08;;;;;;;15.67;4.10;;;;;;;7.31;50.11;99300.09;5072264;28;20279;-55
2022/01/31 08:48:36;;;;;;;16.40;4.33;;;;;;;7.23;49.78;99290.72;5072157;28;20199;-54
2022/01/31 08:51:05;;;;;;;16.57;3.47;;;;;;;7.27;48.31;99286.38;5074343;28;20219;-54
2022/01/31 08:53:33;;;;;;;34.13;5.67;;;;;;;7.29;49.08;99285.47;5092081;28;20282;-55
2022/01/31 08:56:02;;;;;;;15.17;3.23;;;;;;;7.27;48.60;99266.56;5092116;28;20241;-55
2022/01/31 08:58:29;;;;;;;10.00;3.07;;;;;;;7.27;48.81;99271.72;5092048;28;20593;-54
2022/01/31 09:01:04;;;;;;;19.53;4.13;;;;;;;7.32;47.21;99260.47;5086884;28;20216;-54
2022/01/31 09:06:17;;;;;;;10.20;3.23;;;;;;;7.33;47.94;99257.03;5081372;28;20282;-54
2022/01/31 09:08:44;;;;;;;8.33;2.93;;;;;;;7.32;49.24;99269.06;5092288;28;20199;-55
2022/01/31 09:11:11;;;;;;;14.20;3.80;;;;;;;7.31;47.01;99241.56;5091967;28;20286;-54
2022/01/31 09:13:39;;;;;;;10.60;3.90;;;;;;;7.52;46.96;99266.94;5079625;28;20219;-54
2022/01/31 09:16:08;;;;;;;5.13;2.60;;;;;;;7.69;45.54;99268.31;5080207;28;20225;-53
2022/01/31 09:18:36;;;;;;;6.87;3.57;;;;;;;7.77;50.54;99256.94;5073397;28;20215;-54
2022/01/31 09:21:03;;;;;;;10.13;3.30;;;;;;;7.93;49.31;99258.28;5078710;28;20238;-54
2022/01/31 09:23:32;;;;;;;15.80;3.97;;;;;;;8.36;48.76;99260.78;5071415;28;20282;-55
2022/01/31 09:25:59;;;;;;;23.23;5.10;;;;;;;8.34;45.59;99243.63;5079181;28;20188;-55
2022/01/31 09:28:27;;;;;;;21.73;3.50;;;;;;;8.32;47.56;99240.22;5080401;28;20187;-55
2022/01/31 09:30:55;;;;;;;21.17;3.20;;;;;;;8.35;47.05;99233.22;5081315;28;20235;-55
2022/01/31 09:33:22;;;;;;;27.30;5.13;;;;;;;8.38;46.63;99222.78;5080425;28;20224;-55
2022/01/31 09:35:49;;;;;;;17.67;4.13;;;;;;;8.47;47.08;99224.31;5070879;28;20682;-55
2022/01/31 09:38:22;;;;;;;20.50;4.23;;;;;;;8.50;45.11;99223.38;5077944;28;20192;-55
2022/01/31 09:40:50;;;;;;;18.20;4.63;;;;;;;8.48;43.63;99215.66;5071265;28;20727;-53
2022/01/31 09:49:05;;;;;;;9.27;3.37;;;;;;;8.25;43.83;99181.72;5041435;28;20249;-54
2022/01/31 09:51:33;;;;;;;40.77;4.70;;;;;;;8.23;43.56;99186.13;5083887;28;20223;-54
2022/01/31 09:54:03;;;;;;;30.47;5.20;;;;;;;8.24;43.23;99170.53;5079540;28;20562;-54
2022/01/31 09:56:33;;;;;;;34.30;5.73;;;;;;;8.22;44.32;99171.47;5080803;28;20560;-54
2022/01/31 09:59:02;;;;;;;10.03;3.90;;;;;;;8.27;43.25;99156.69;5079100;28;20192;-55
2022/01/31 10:01:31;;;;;;;29.83;5.40;;;;;;;8.26;43.22;99152.41;5079024;28;20207;-56
2022/01/31 10:04:00;;;;;;;16.43;4.97;;;;;;;8.28;44.18;99148.03;5070566;28;20202;-55
2022/01/31 10:06:32;;;;;;;14.80;4.30;;;;;;;8.29;42.44;99147.16;5070406;28;20739;-54
2022/01/31 10:09:05;;;;;;;22.93;4.20;;;;;;;8.31;43.28;99150.56;5070450;28;20320;-56
2022/01/31 10:11:45;;;;;;;11.83;3.10;;;;;;;8.43;42.59;99150.28;5100653;28;20706;-54
2022/01/31 10:17:00;;;;;;;10.93;3.60;;;;;;;8.63;41.72;99155.78;5084845;28;20579;-55
2022/01/31 10:19:28;;;;;;;21.37;3.90;;;;;;;8.71;41.72;99150.38;5083593;28;20223;-55
2022/01/31 10:21:57;;;;;;;14.37;4.30;;;;;;;8.80;40.97;99149.31;5081271;28;20216;-55
2022/01/31 10:24:26;;;;;;;14.83;3.37;;;;;;;8.82;41.36;99138.00;5070201;28;20203;-54
2022/01/31 10:26:55;;;;;;;14.37;3.93;;;;;;;8.81;41.28;99130.28;5079804;28;20632;-54
2022/01/31 10:29:24;;;;;;;15.87;5.17;;;;;;;8.98;41.26;99133.25;5070336;28;20199;-58
2022/01/31 10:32:01;;;;;;;13.97;4.10;;;;;;;8.99;40.00;99119.44;5071894;28;20196;-59
2022/01/31 10:34:29;;;;;;;9.57;3.60;;;;;;;8.96;40.29;99119.50;5105141;28;20202;-58
2022/01/31 10:37:03;;;;;;;12.60;4.60;;;;;;;9.15;40.22;99114.63;5110852;28;20741;-59
2022/01/31 10:45:42;;;;;;;8.30;3.27;;;;;;;9.11;39.00;99082.84;5080695;28;20202;-60
2022/01/31 10:53:55;;;;;;;9.53;3.20;;;;;;;9.15;38.47;99047.31;5072564;28;20195;-60
2022/01/31 10:56:23;;;;;;;17.97;4.17;;;;;;;9.16;38.88;99054.19;5089061;28;20202;-59
2022/01/31 10:58:57;;;;;;;16.30;3.07;;;;;;;9.23;38.37;99045.38;5102612;28;20205;-59
2022/01/31 11:01:25;;;;;;;17.37;4.60;;;;;;;9.36;38.56;99047.53;5095560;28;20324;-59
2022/01/31 11:03:52;;;;;;;14.67;3.90;;;;;;;9.33;39.33;99036.41;5089733;28;20594;-59
2022/01/31 11:06:20;;;;;;;11.87;3.37;;;;;;;9.34;38.97;99025.16;5089467;28;20278;-60
2022/01/31 11:08:48;;;;;;;20.43;4.97;;;;;;;9.35;38.78;99021.69;5088257;28;20197;-60
2022/01/31 11:11:15;;;;;;;26.20;5.13;;;;;;;9.32;38.95;99024.34;5088377;28;20191;-59
2022/01/31 11:13:43;;;;;;;32.13;4.83;;;;;;;9.27;38.92;99015.88;5088514;28;20238;-60
2022/01/31 11:16:11;;;;;;;15.40;3.70;;;;;;;9.28;39.11;99013.22;5088476;28;20201;-59
2022/01/31 11:18:38;;;;;;;14.40;3.87;;;;;;;9.16;39.04;98998.09;5088833;28;20221;-60
2022/01/31 11:21:08;;;;;;;16.30;4.07;;;;;;;9.12;39.54;98999.09;5085690;28;20659;-60
2022/01/31 11:23:39;;;;;;;13.93;3.70;;;;;;;9.17;38.98;98979.06;5080784;28;20279;-60
2022/01/31 11:26:09;;;;;;;15.13;3.80;;;;;;;9.16;39.58;98967.00;5077955;28;20196;-56
2022/01/31 11:28:39;;;;;;;22.50;4.27;;;;;;;9.28;37.99;98965.78;5077997;28;20199;-56
2022/01/31 11:31:06;;;;;;;8.07;2.90;;;;;;;9.26;37.58;98965.81;5084052;28;20282;-56
2022/01/31 11:33:35;;;;;;;19.23;3.70;;;;;;;9.31;38.59;98968.28;5089636;28;20197;-56
2022/01/31 11:36:03;;;;;;;12.97;3.10;;;;;;;9.31;37.98;98969.13;5083063;28;20187;-55
2022/01/31 11:38:30;;;;;;;30.40;6.30;;;;;;;9.22;37.70;98953.03;5079312;28;20206;-55
2022/01/31 11:41:02;;;;;;;29.77;5.30;;;;;;;9.25;36.19;98953.78;5077892;28;20738;-55
2022/01/31 11:43:31;;;;;;;13.93;3.93;;;;;;;9.29;36.96;98960.56;5077049;28;20196;-55
2022/01/31 11:46:00;;;;;;;12.63;3.13;;;;;;;9.09;36.89;98924.94;5078317;28;20198;-56
2022/01/31 11:48:30;;;;;;;13.07;3.97;;;;;;;9.18;37.22;98938.50;5079351;28;20256;-55
2022/01/31 11:51:00;;;;;;;13.00;5.10;;;;;;;9.22;36.46;98934.91;5077892;28;20693;-55
2022/01/31 11:53:29;;;;;;;24.50;5.20;;;;;;;9.23;36.78;98932.28;5077019;28;20211;-56
2022/01/31 11:56:03;;;;;;;17.73;4.13;;;;;;;9.28;35.86;98929.53;5078221;28;20258;-55
2022/01/31 11:58:35;;;;;;;17.80;4.80;;;;;;;9.22;36.39;98929.75;5079161;28;20195;-56
2022/01/31 12:01:02;;;;;;;12.97;3.67;;;;;;;9.29;35.78;98929.47;5078183;28;20189;-56
2022/01/31 12:03:30;;;;;;;9.33;3.13;;;;;;;9.33;35.27;98922.47;5076787;28;20212;-56
2022/01/31 12:06:08;;;;;;;13.87;4.20;;;;;;;9.08;35.48;98897.38;5078382;28;20256;-56